Austin, Texas
Traffic Map
Current Weather Conditions
Austin, Texas
Overcast
Overcast
14°
Feels Like: 14°
Wind Chill: 14° Ceiling: 1600
Heat Index: 14° Visibility: 10mi
Dew Point: 12° Wind: 7mph
Humidity: 87% Direction: ° ()
Pressure: 30.03in Gusts: 0mph
Raw Report DataKATT 171217Z AUTO VRB06KT 10SM SCT010 OVC016 14/12 A3003 RMK AO2 T01390117
Traffic Incident Summary
Active as of:
Severity:
Category:
InformationThere was an issue retrieving the traffic information for this location. Please try a different location or try again shortly.
Advertisements
At Last! Intellicast now available for iPhone and Android